createdAt,value
2022-12-17T00:01:59.585Z,90.47
2022-12-17T00:06:59.415Z,90.25
2022-12-17T00:11:59.363Z,90.15
2022-12-17T00:16:59.275Z,89.94
2022-12-17T00:21:59.267Z,89.84
2022-12-17T00:26:59.213Z,90.47
2022-12-17T00:31:59.205Z,90.25
2022-12-17T00:36:59.098Z,90.19
2022-12-17T00:41:59.123Z,89.84
2022-12-17T00:46:59.063Z,89.42
2022-12-17T00:51:59.123Z,89.98
2022-12-17T00:56:59.005Z,89.77
2022-12-17T01:01:58.918Z,89.87
2022-12-17T01:06:58.789Z,89.46
2022-12-17T01:11:58.720Z,90.09
2022-12-17T01:16:58.694Z,89.77
2022-12-17T01:21:58.609Z,89.62
2022-12-17T01:26:58.600Z,89.56
2022-12-17T01:31:58.640Z,89.42
2022-12-17T01:36:58.488Z,90.19
2022-12-17T01:41:58.553Z,89.35
2022-12-17T01:46:58.374Z,89.98
2022-12-17T01:51:58.309Z,90.30
2022-12-17T01:56:58.268Z,89.77
2022-12-17T02:01:58.366Z,89.46
2022-12-17T02:06:58.167Z,89.31
2022-12-17T02:11:58.082Z,89.10
2022-12-17T02:16:58.087Z,88.89
2022-12-17T02:21:58.034Z,89.77
2022-12-17T02:26:57.934Z,90.40
2022-12-17T02:31:59.042Z,90.25
2022-12-17T02:36:58.035Z,89.62
2022-12-17T02:41:57.775Z,90.05
2022-12-17T02:46:57.760Z,90.15
2022-12-17T02:51:57.702Z,90.36
2022-12-17T02:56:57.634Z,90.15
2022-12-17T03:01:57.709Z,89.62
2022-12-17T03:06:57.625Z,89.94
2022-12-17T03:11:57.475Z,90.36
2022-12-17T03:16:57.578Z,90.25
2022-12-17T03:21:57.368Z,89.84
2022-12-17T03:26:57.291Z,91.03
2022-12-17T03:31:57.241Z,91.24
2022-12-17T03:36:57.162Z,90.05
2022-12-17T03:41:57.148Z,90.19
2022-12-17T03:46:57.029Z,89.92
2022-12-17T03:51:57.069Z,90.23
2022-12-17T03:56:57.076Z,90.30
2022-12-17T04:01:57.046Z,90.66
2022-12-17T04:06:56.895Z,90.12
2022-12-17T04:11:56.856Z,90.23
2022-12-17T04:16:56.793Z,89.92
2022-12-17T04:21:56.820Z,89.92
2022-12-17T04:26:59.163Z,89.71
2022-12-17T04:31:57.621Z,89.29
2022-12-17T04:36:56.588Z,89.81
2022-12-17T04:41:58.661Z,89.71
2022-12-17T04:46:56.435Z,89.50
2022-12-17T04:51:56.463Z,89.46
2022-12-17T04:56:56.480Z,89.46
2022-12-17T05:01:56.531Z,89.14
2022-12-17T05:06:56.207Z,88.82
2022-12-17T05:11:56.172Z,88.72
2022-12-17T05:16:56.136Z,88.93
2022-12-17T05:21:56.056Z,89.46
2022-12-17T05:26:56.032Z,88.41
2022-12-17T05:31:55.933Z,88.51
2022-12-17T05:36:55.996Z,88.72
2022-12-17T05:41:55.950Z,88.62
2022-12-17T05:46:55.869Z,89.04
2022-12-17T05:51:55.791Z,88.72
2022-12-17T05:56:55.665Z,88.51
2022-12-17T06:01:55.725Z,89.39
2022-12-17T06:06:55.563Z,89.18
2022-12-17T06:11:59.512Z,89.07
2022-12-17T06:16:56.566Z,88.93
2022-12-17T06:21:55.439Z,88.97
2022-12-17T06:26:55.376Z,89.18
2022-12-17T06:31:55.365Z,88.97
2022-12-17T06:36:55.392Z,89.22
2022-12-17T06:42:02.138Z,89.26
2022-12-17T06:46:56.234Z,89.16
2022-12-17T06:51:55.116Z,89.41
2022-12-17T06:56:55.053Z,89.37
2022-12-17T07:01:55.080Z,88.25
2022-12-17T07:06:55.028Z,89.20
2022-12-17T07:11:54.987Z,89.30
2022-12-17T07:16:54.843Z,88.53
2022-12-17T07:21:54.795Z,88.46
2022-12-17T07:26:54.742Z,88.29
2022-12-17T07:31:55.090Z,88.57
2022-12-17T07:36:54.637Z,87.62
2022-12-17T07:41:54.738Z,87.83
2022-12-17T07:46:54.635Z,87.52
2022-12-17T07:51:54.556Z,87.52
2022-12-17T07:56:54.481Z,87.20
2022-12-17T08:01:54.502Z,87.03
2022-12-17T08:07:00.634Z,86.93
2022-12-17T08:11:55.299Z,87.98
2022-12-17T08:16:54.321Z,87.41
2022-12-17T08:21:54.213Z,87.55
2022-12-17T08:26:54.175Z,87.70
2022-12-17T08:31:54.097Z,88.60
2022-12-17T08:36:54.034Z,87.13
2022-12-17T08:41:55.409Z,87.55
2022-12-17T08:46:53.888Z,88.08
2022-12-17T08:51:53.900Z,87.55
2022-12-17T08:56:53.948Z,87.45
2022-12-17T09:01:53.921Z,87.70
2022-12-17T09:06:53.719Z,87.28
2022-12-17T09:11:53.639Z,87.38
2022-12-17T09:16:53.665Z,86.61
2022-12-17T09:21:53.542Z,87.00
2022-12-17T09:26:53.493Z,85.67
2022-12-17T09:31:53.463Z,85.99
2022-12-17T09:36:53.381Z,85.67
2022-12-17T09:41:53.327Z,85.21
2022-12-17T09:46:53.295Z,84.79
2022-12-17T09:51:53.208Z,84.79
2022-12-17T09:56:53.237Z,85.00
2022-12-17T10:01:53.365Z,84.65
2022-12-17T10:06:53.121Z,84.33
2022-12-17T10:11:53.161Z,84.23
2022-12-17T10:16:53.001Z,84.19
2022-12-17T10:21:52.948Z,83.76
2022-12-17T10:26:52.902Z,83.83
2022-12-17T10:31:52.873Z,83.41
2022-12-17T10:36:52.822Z,83.69
2022-12-17T10:41:52.729Z,83.76
2022-12-17T10:46:52.690Z,83.34
2022-12-17T10:51:52.589Z,82.92
2022-12-17T10:56:52.642Z,83.34
2022-12-17T11:01:52.756Z,83.44
2022-12-17T11:06:59.039Z,83.76
2022-12-17T11:11:52.484Z,83.30
2022-12-17T11:16:52.332Z,83.40
2022-12-17T11:21:52.427Z,83.68
2022-12-17T11:26:52.459Z,83.26
2022-12-17T11:31:53.403Z,83.86
2022-12-17T11:36:53.266Z,83.54
2022-12-17T11:41:52.281Z,83.54
2022-12-17T11:46:52.206Z,83.40
2022-12-17T11:51:52.099Z,82.91
2022-12-17T11:56:52.922Z,83.29
2022-12-17T12:01:51.971Z,83.33
2022-12-17T12:06:51.836Z,83.22
2022-12-17T12:11:51.880Z,83.29
2022-12-17T12:16:51.771Z,82.87
2022-12-17T12:21:51.658Z,82.87
2022-12-17T12:26:52.581Z,83.08
2022-12-17T12:31:51.629Z,82.87
2022-12-17T12:36:51.628Z,82.66
2022-12-17T12:41:51.502Z,84.17
2022-12-17T12:46:51.489Z,84.38
2022-12-17T12:51:51.544Z,83.96
2022-12-17T12:56:51.241Z,83.75
2022-12-17T13:01:51.561Z,83.86
2022-12-17T13:06:51.278Z,83.96
2022-12-17T13:11:51.191Z,83.54
2022-12-17T13:16:51.245Z,84.06
2022-12-17T13:21:51.038Z,84.80
2022-12-17T13:26:50.972Z,84.48
2022-12-17T13:31:51.017Z,84.06
2022-12-17T13:36:56.434Z,84.38
2022-12-17T13:41:50.903Z,85.32
2022-12-17T14:32:49.267Z,86.58
2022-12-17T14:37:49.293Z,87.36
2022-12-17T14:42:49.208Z,86.83
2022-12-17T14:47:49.080Z,87.67
2022-12-17T14:52:49.064Z,87.57
2022-12-17T14:57:49.145Z,86.77
2022-12-17T15:02:49.267Z,87.44
2022-12-17T15:07:48.998Z,87.92
2022-12-17T15:12:48.770Z,87.54
2022-12-17T15:17:48.950Z,87.96
2022-12-17T15:22:49.894Z,88.07
2022-12-17T15:27:48.683Z,88.28
2022-12-17T15:32:48.616Z,88.00
2022-12-17T15:37:48.587Z,87.52
2022-12-17T15:42:48.450Z,87.66
2022-12-17T15:47:48.456Z,88.29
2022-12-17T15:52:48.382Z,87.87
2022-12-17T15:57:48.456Z,87.42
2022-12-17T16:02:48.609Z,88.06
2022-12-17T16:07:48.226Z,88.06
2022-12-17T16:12:48.201Z,87.99
2022-12-17T16:17:48.130Z,87.71
2022-12-17T16:22:48.041Z,87.71
2022-12-17T16:27:48.062Z,88.24
2022-12-17T16:32:47.969Z,88.35
2022-12-17T16:37:47.926Z,87.76
2022-12-17T16:42:47.911Z,87.86
2022-12-17T16:47:47.772Z,87.79
2022-12-17T16:52:47.787Z,87.79
2022-12-17T16:57:47.723Z,87.62
2022-12-17T17:02:52.976Z,88.46
2022-12-17T17:07:48.612Z,88.43
2022-12-17T17:12:47.557Z,88.15
2022-12-17T17:17:55.828Z,88.36
2022-12-17T17:22:48.430Z,88.04
2022-12-17T18:34:50.479Z,86.67
2022-12-17T18:39:50.241Z,86.88
2022-12-17T18:45:18.621Z,87.09
2022-12-17T18:49:50.008Z,86.60
2022-12-17T18:54:49.899Z,86.71
2022-12-17T18:59:49.922Z,86.18
2022-12-17T19:04:49.860Z,85.66
2022-12-17T19:09:49.959Z,86.40
2022-12-17T19:14:49.768Z,85.69
2022-12-17T19:19:50.988Z,85.91
2022-12-17T19:24:49.691Z,85.91
2022-12-17T19:29:50.133Z,85.63
2022-12-17T19:34:49.529Z,85.41
2022-12-17T19:39:50.507Z,85.94
2022-12-17T19:44:50.457Z,86.75
2022-12-17T19:49:49.426Z,87.03
2022-12-17T19:54:49.388Z,85.69
2022-12-17T19:59:49.251Z,85.91
2022-12-17T20:04:49.247Z,86.75
2022-12-17T20:09:49.168Z,86.43
2022-12-17T20:14:49.116Z,85.91
2022-12-17T20:19:49.048Z,86.33
2022-12-17T20:24:49.046Z,85.69
2022-12-17T20:29:48.862Z,86.50
2022-12-17T20:34:48.932Z,86.18
2022-12-17T20:39:48.869Z,86.29
2022-12-17T20:44:53.428Z,86.35
2022-12-17T20:49:49.786Z,86.46
2022-12-17T20:54:48.626Z,86.15
2022-12-17T20:59:48.599Z,85.30
2022-12-17T21:04:48.528Z,86.15
2022-12-17T21:09:48.488Z,86.42
2022-12-17T21:14:48.415Z,85.58
2022-12-17T21:19:48.396Z,85.68
2022-12-17T21:24:48.330Z,85.47
2022-12-17T21:29:48.302Z,85.09
2022-12-17T21:34:48.181Z,85.72
2022-12-17T21:39:48.252Z,85.79
2022-12-17T21:44:48.167Z,85.75
2022-12-17T21:49:48.114Z,85.22
2022-12-17T21:54:48.046Z,84.84
2022-12-17T21:59:47.999Z,85.68
2022-12-17T22:04:47.978Z,85.11
2022-12-17T22:10:11.129Z,84.59
2022-12-17T22:14:48.853Z,85.11
2022-12-17T22:19:47.754Z,84.80
2022-12-17T22:24:47.701Z,85.01
2022-12-17T22:29:47.699Z,85.29
2022-12-17T22:36:58.288Z,84.87
2022-12-17T22:44:28.701Z,84.34
2022-12-17T22:44:53.169Z,84.66
2022-12-17T22:49:48.462Z,84.94
2022-12-17T22:54:47.352Z,84.62
2022-12-17T22:59:47.283Z,84.30
2022-12-17T23:04:47.315Z,83.98
2022-12-17T23:09:47.220Z,83.63
2022-12-17T23:14:47.135Z,83.88
2022-12-17T23:19:47.283Z,83.73
2022-12-17T23:24:47.129Z,83.31
2022-12-17T23:29:55.899Z,82.97
2022-12-17T23:34:46.826Z,83.07
2022-12-17T23:39:46.807Z,82.33
2022-12-17T23:44:46.766Z,82.43
2022-12-17T23:49:46.734Z,82.40
2022-12-17T23:54:46.672Z,81.56
2022-12-17T23:59:46.695Z,82.08
